sensor_id;sensor_type;location;lat;lon;timestamp;P1;durP1;ratioP1;P2;durP2;ratioP2
47403;SDS011;33157;51.508;4.288;2023-07-02T00:00:28;41.10;;;15.93;;
47403;SDS011;33157;51.508;4.288;2023-07-02T00:05:33;35.70;;;15.82;;
47403;SDS011;33157;51.508;4.288;2023-07-02T00:10:38;42.25;;;16.40;;
47403;SDS011;33157;51.508;4.288;2023-07-02T00:15:39;36.88;;;15.93;;
47403;SDS011;33157;51.508;4.288;2023-07-02T00:20:54;36.25;;;13.90;;
47403;SDS011;33157;51.508;4.288;2023-07-02T00:25:55;28.95;;;12.65;;
47403;SDS011;33157;51.508;4.288;2023-07-02T00:30:57;27.70;;;10.85;;
47403;SDS011;33157;51.508;4.288;2023-07-02T00:36:05;25.73;;;10.02;;
47403;SDS011;33157;51.508;4.288;2023-07-02T00:41:17;23.95;;;7.68;;
47403;SDS011;33157;51.508;4.288;2023-07-02T00:46:23;16.52;;;7.20;;
47403;SDS011;33157;51.508;4.288;2023-07-02T00:51:30;18.40;;;6.30;;
47403;SDS011;33157;51.508;4.288;2023-07-02T00:56:37;15.70;;;6.55;;
47403;SDS011;33157;51.508;4.288;2023-07-02T01:01:47;13.82;;;6.03;;
47403;SDS011;33157;51.508;4.288;2023-07-02T01:06:55;15.35;;;6.63;;
47403;SDS011;33157;51.508;4.288;2023-07-02T01:11:58;12.52;;;5.43;;
47403;SDS011;33157;51.508;4.288;2023-07-02T01:17:01;18.90;;;6.32;;
47403;SDS011;33157;51.508;4.288;2023-07-02T01:22:04;16.33;;;6.40;;
47403;SDS011;33157;51.508;4.288;2023-07-02T01:27:06;14.45;;;5.38;;
47403;SDS011;33157;51.508;4.288;2023-07-02T01:32:11;12.43;;;5.43;;
47403;SDS011;33157;51.508;4.288;2023-07-02T01:37:12;15.35;;;6.60;;
47403;SDS011;33157;51.508;4.288;2023-07-02T01:42:16;20.50;;;7.50;;
47403;SDS011;33157;51.508;4.288;2023-07-02T01:47:24;18.02;;;6.90;;
47403;SDS011;33157;51.508;4.288;2023-07-02T01:52:34;19.77;;;7.50;;
47403;SDS011;33157;51.508;4.288;2023-07-02T01:57:37;16.08;;;6.63;;
47403;SDS011;33157;51.508;4.288;2023-07-02T02:02:42;17.05;;;7.15;;
47403;SDS011;33157;51.508;4.288;2023-07-02T02:07:43;21.33;;;7.50;;
47403;SDS011;33157;51.508;4.288;2023-07-02T02:12:45;15.45;;;6.57;;
47403;SDS011;33157;51.508;4.288;2023-07-02T02:17:50;25.73;;;8.05;;
47403;SDS011;33157;51.508;4.288;2023-07-02T02:22:53;21.13;;;7.38;;
47403;SDS011;33157;51.508;4.288;2023-07-02T02:27:58;19.60;;;7.13;;
47403;SDS011;33157;51.508;4.288;2023-07-02T02:33:06;15.90;;;6.95;;
47403;SDS011;33157;51.508;4.288;2023-07-02T02:38:09;19.58;;;7.57;;
47403;SDS011;33157;51.508;4.288;2023-07-02T02:43:12;19.40;;;7.37;;
47403;SDS011;33157;51.508;4.288;2023-07-02T02:48:13;19.27;;;6.85;;
47403;SDS011;33157;51.508;4.288;2023-07-02T02:53:14;19.52;;;7.57;;
47403;SDS011;33157;51.508;4.288;2023-07-02T02:58:19;20.55;;;6.85;;
47403;SDS011;33157;51.508;4.288;2023-07-02T03:03:21;25.87;;;7.80;;
47403;SDS011;33157;51.508;4.288;2023-07-02T03:08:25;23.85;;;8.18;;
47403;SDS011;33157;51.508;4.288;2023-07-02T03:13:27;17.38;;;6.90;;
47403;SDS011;33157;51.508;4.288;2023-07-02T03:18:29;25.77;;;7.97;;
47403;SDS011;33157;51.508;4.288;2023-07-02T03:23:29;19.35;;;7.80;;
47403;SDS011;33157;51.508;4.288;2023-07-02T03:28:30;19.17;;;7.88;;
47403;SDS011;33157;51.508;4.288;2023-07-02T03:33:34;21.20;;;7.95;;
47403;SDS011;33157;51.508;4.288;2023-07-02T03:38:35;23.42;;;7.15;;
47403;SDS011;33157;51.508;4.288;2023-07-02T03:43:39;23.95;;;8.63;;
47403;SDS011;33157;51.508;4.288;2023-07-02T03:48:42;21.70;;;7.50;;
47403;SDS011;33157;51.508;4.288;2023-07-02T03:53:43;31.45;;;9.30;;
47403;SDS011;33157;51.508;4.288;2023-07-02T03:58:44;19.58;;;7.18;;
47403;SDS011;33157;51.508;4.288;2023-07-02T04:03:50;23.75;;;8.02;;
47403;SDS011;33157;51.508;4.288;2023-07-02T04:08:53;20.70;;;6.75;;
47403;SDS011;33157;51.508;4.288;2023-07-02T04:13:56;15.05;;;6.10;;
47403;SDS011;33157;51.508;4.288;2023-07-02T04:18:57;18.90;;;6.47;;
47403;SDS011;33157;51.508;4.288;2023-07-02T04:23:59;22.00;;;7.28;;
47403;SDS011;33157;51.508;4.288;2023-07-02T04:29:01;19.48;;;6.55;;
47403;SDS011;33157;51.508;4.288;2023-07-02T04:34:05;16.02;;;5.88;;
47403;SDS011;33157;51.508;4.288;2023-07-02T04:39:11;17.05;;;5.75;;
47403;SDS011;33157;51.508;4.288;2023-07-02T04:44:12;16.67;;;6.28;;
47403;SDS011;33157;51.508;4.288;2023-07-02T04:49:13;18.58;;;6.30;;
47403;SDS011;33157;51.508;4.288;2023-07-02T04:54:15;19.52;;;6.72;;
47403;SDS011;33157;51.508;4.288;2023-07-02T04:59:19;18.75;;;6.65;;
47403;SDS011;33157;51.508;4.288;2023-07-02T05:04:21;17.52;;;7.32;;
47403;SDS011;33157;51.508;4.288;2023-07-02T05:09:22;21.35;;;7.35;;
47403;SDS011;33157;51.508;4.288;2023-07-02T05:14:30;21.58;;;7.72;;
47403;SDS011;33157;51.508;4.288;2023-07-02T05:19:31;18.83;;;6.10;;
47403;SDS011;33157;51.508;4.288;2023-07-02T05:24:32;18.05;;;5.22;;
47403;SDS011;33157;51.508;4.288;2023-07-02T05:29:32;25.08;;;5.95;;
47403;SDS011;33157;51.508;4.288;2023-07-02T05:34:34;13.50;;;5.05;;
47403;SDS011;33157;51.508;4.288;2023-07-02T05:39:38;15.48;;;5.65;;
47403;SDS011;33157;51.508;4.288;2023-07-02T05:44:39;17.83;;;5.88;;
47403;SDS011;33157;51.508;4.288;2023-07-02T05:49:44;16.35;;;5.55;;
47403;SDS011;33157;51.508;4.288;2023-07-02T05:54:48;15.57;;;5.32;;
47403;SDS011;33157;51.508;4.288;2023-07-02T05:59:54;15.10;;;5.03;;
47403;SDS011;33157;51.508;4.288;2023-07-02T06:05:01;16.30;;;6.03;;
47403;SDS011;33157;51.508;4.288;2023-07-02T06:10:03;17.05;;;5.80;;
47403;SDS011;33157;51.508;4.288;2023-07-02T06:15:11;11.82;;;5.50;;
47403;SDS011;33157;51.508;4.288;2023-07-02T06:25:20;17.67;;;6.75;;
47403;SDS011;33157;51.508;4.288;2023-07-02T06:30:21;17.00;;;5.47;;
47403;SDS011;33157;51.508;4.288;2023-07-02T06:35:27;15.15;;;5.57;;
47403;SDS011;33157;51.508;4.288;2023-07-02T06:40:29;13.52;;;5.13;;
47403;SDS011;33157;51.508;4.288;2023-07-02T06:45:30;12.40;;;4.72;;
47403;SDS011;33157;51.508;4.288;2023-07-02T06:50:31;13.52;;;5.07;;
47403;SDS011;33157;51.508;4.288;2023-07-02T06:55:37;16.42;;;5.32;;
47403;SDS011;33157;51.508;4.288;2023-07-02T07:00:39;15.57;;;5.00;;
47403;SDS011;33157;51.508;4.288;2023-07-02T07:05:41;13.05;;;5.18;;
47403;SDS011;33157;51.508;4.288;2023-07-02T07:15:46;11.20;;;4.30;;
47403;SDS011;33157;51.508;4.288;2023-07-02T07:20:54;15.70;;;4.40;;
47403;SDS011;33157;51.508;4.288;2023-07-02T07:25:54;14.40;;;4.82;;
47403;SDS011;33157;51.508;4.288;2023-07-02T07:30:58;13.00;;;4.25;;
47403;SDS011;33157;51.508;4.288;2023-07-02T07:35:59;13.10;;;4.97;;
47403;SDS011;33157;51.508;4.288;2023-07-02T07:41:02;14.55;;;5.35;;
47403;SDS011;33157;51.508;4.288;2023-07-02T07:46:03;11.52;;;4.70;;
47403;SDS011;33157;51.508;4.288;2023-07-02T07:51:05;13.30;;;4.90;;
47403;SDS011;33157;51.508;4.288;2023-07-02T07:56:14;15.32;;;5.47;;
47403;SDS011;33157;51.508;4.288;2023-07-02T08:01:18;16.60;;;5.43;;
47403;SDS011;33157;51.508;4.288;2023-07-02T08:06:21;18.17;;;5.70;;
47403;SDS011;33157;51.508;4.288;2023-07-02T08:11:22;14.68;;;5.78;;
47403;SDS011;33157;51.508;4.288;2023-07-02T08:16:23;16.40;;;5.70;;
47403;SDS011;33157;51.508;4.288;2023-07-02T08:21:24;17.77;;;6.72;;
47403;SDS011;33157;51.508;4.288;2023-07-02T08:26:29;18.27;;;6.05;;
47403;SDS011;33157;51.508;4.288;2023-07-02T08:31:30;19.85;;;7.22;;
47403;SDS011;33157;51.508;4.288;2023-07-02T08:36:31;17.80;;;6.30;;
47403;SDS011;33157;51.508;4.288;2023-07-02T08:41:44;14.98;;;5.28;;
47403;SDS011;33157;51.508;4.288;2023-07-02T08:46:50;26.65;;;8.05;;
47403;SDS011;33157;51.508;4.288;2023-07-02T08:52:13;15.63;;;7.25;;
47403;SDS011;33157;51.508;4.288;2023-07-02T08:57:15;18.85;;;7.30;;
47403;SDS011;33157;51.508;4.288;2023-07-02T09:02:16;18.73;;;7.25;;
47403;SDS011;33157;51.508;4.288;2023-07-02T09:07:18;17.50;;;6.10;;
47403;SDS011;33157;51.508;4.288;2023-07-02T09:12:27;16.45;;;6.05;;
47403;SDS011;33157;51.508;4.288;2023-07-02T09:17:42;14.68;;;6.15;;
47403;SDS011;33157;51.508;4.288;2023-07-02T09:22:53;13.20;;;4.85;;
47403;SDS011;33157;51.508;4.288;2023-07-02T09:27:59;14.38;;;5.40;;
47403;SDS011;33157;51.508;4.288;2023-07-02T09:33:10;18.85;;;6.10;;
47403;SDS011;33157;51.508;4.288;2023-07-02T09:38:15;15.07;;;5.50;;
47403;SDS011;33157;51.508;4.288;2023-07-02T09:43:22;17.02;;;6.75;;
47403;SDS011;33157;51.508;4.288;2023-07-02T09:48:31;14.07;;;5.50;;
47403;SDS011;33157;51.508;4.288;2023-07-02T09:53:36;21.40;;;8.15;;
47403;SDS011;33157;51.508;4.288;2023-07-02T09:58:37;15.63;;;5.18;;
47403;SDS011;33157;51.508;4.288;2023-07-02T10:03:38;14.93;;;5.50;;
47403;SDS011;33157;51.508;4.288;2023-07-02T10:08:40;17.08;;;5.72;;
47403;SDS011;33157;51.508;4.288;2023-07-02T10:13:57;17.02;;;6.82;;
47403;SDS011;33157;51.508;4.288;2023-07-02T10:19:09;16.10;;;5.22;;
47403;SDS011;33157;51.508;4.288;2023-07-02T10:24:13;16.08;;;5.20;;
47403;SDS011;33157;51.508;4.288;2023-07-02T10:29:18;10.73;;;4.57;;
47403;SDS011;33157;51.508;4.288;2023-07-02T10:34:35;11.50;;;4.75;;
47403;SDS011;33157;51.508;4.288;2023-07-02T10:39:38;12.95;;;5.35;;
47403;SDS011;33157;51.508;4.288;2023-07-02T10:44:51;10.68;;;4.90;;
47403;SDS011;33157;51.508;4.288;2023-07-02T10:49:52;11.52;;;4.70;;
47403;SDS011;33157;51.508;4.288;2023-07-02T10:54:53;10.80;;;3.90;;
47403;SDS011;33157;51.508;4.288;2023-07-02T11:00:06;12.32;;;3.85;;
47403;SDS011;33157;51.508;4.288;2023-07-02T11:05:11;18.20;;;3.97;;
47403;SDS011;33157;51.508;4.288;2023-07-02T11:10:19;12.02;;;4.50;;
47403;SDS011;33157;51.508;4.288;2023-07-02T11:15:21;13.73;;;4.20;;
47403;SDS011;33157;51.508;4.288;2023-07-02T11:20:22;12.23;;;3.85;;
47403;SDS011;33157;51.508;4.288;2023-07-02T11:25:34;14.90;;;3.97;;
47403;SDS011;33157;51.508;4.288;2023-07-02T11:30:44;8.30;;;3.30;;
47403;SDS011;33157;51.508;4.288;2023-07-02T11:35:48;7.85;;;3.28;;
47403;SDS011;33157;51.508;4.288;2023-07-02T11:40:51;9.50;;;3.30;;
47403;SDS011;33157;51.508;4.288;2023-07-02T11:45:52;9.03;;;3.77;;
47403;SDS011;33157;51.508;4.288;2023-07-02T11:50:57;8.32;;;3.60;;
47403;SDS011;33157;51.508;4.288;2023-07-02T11:55:59;9.30;;;3.40;;
47403;SDS011;33157;51.508;4.288;2023-07-02T12:01:00;15.23;;;3.70;;
47403;SDS011;33157;51.508;4.288;2023-07-02T12:06:01;10.00;;;3.92;;
47403;SDS011;33157;51.508;4.288;2023-07-02T12:11:02;11.32;;;3.70;;
47403;SDS011;33157;51.508;4.288;2023-07-02T12:16:30;6.35;;;3.20;;
47403;SDS011;33157;51.508;4.288;2023-07-02T12:21:39;12.13;;;4.13;;
47403;SDS011;33157;51.508;4.288;2023-07-02T12:26:42;7.75;;;3.67;;
47403;SDS011;33157;51.508;4.288;2023-07-02T12:31:44;11.90;;;4.32;;
47403;SDS011;33157;51.508;4.288;2023-07-02T12:36:44;13.07;;;4.20;;
47403;SDS011;33157;51.508;4.288;2023-07-02T12:41:46;9.38;;;3.88;;
47403;SDS011;33157;51.508;4.288;2023-07-02T12:46:54;13.40;;;5.10;;
47403;SDS011;33157;51.508;4.288;2023-07-02T12:51:55;10.63;;;5.25;;
47403;SDS011;33157;51.508;4.288;2023-07-02T13:01:59;10.98;;;4.93;;
47403;SDS011;33157;51.508;4.288;2023-07-02T13:07:00;11.70;;;4.90;;
47403;SDS011;33157;51.508;4.288;2023-07-02T13:12:03;12.65;;;3.95;;
47403;SDS011;33157;51.508;4.288;2023-07-02T13:17:08;13.38;;;5.35;;
47403;SDS011;33157;51.508;4.288;2023-07-02T13:22:10;10.68;;;4.82;;
47403;SDS011;33157;51.508;4.288;2023-07-02T13:27:18;13.35;;;4.90;;
47403;SDS011;33157;51.508;4.288;2023-07-02T13:32:23;12.60;;;4.60;;
47403;SDS011;33157;51.508;4.288;2023-07-02T13:37:24;12.25;;;4.60;;
47403;SDS011;33157;51.508;4.288;2023-07-02T13:42:32;10.35;;;4.78;;
47403;SDS011;33157;51.508;4.288;2023-07-02T13:47:40;12.32;;;4.63;;
47403;SDS011;33157;51.508;4.288;2023-07-02T13:52:41;10.73;;;4.50;;
47403;SDS011;33157;51.508;4.288;2023-07-02T13:57:43;13.07;;;4.50;;
47403;SDS011;33157;51.508;4.288;2023-07-02T14:02:46;11.48;;;4.35;;
47403;SDS011;33157;51.508;4.288;2023-07-02T14:07:56;13.52;;;4.97;;
47403;SDS011;33157;51.508;4.288;2023-07-02T14:12:59;13.18;;;5.07;;
47403;SDS011;33157;51.508;4.288;2023-07-02T14:18:04;11.90;;;4.72;;
47403;SDS011;33157;51.508;4.288;2023-07-02T14:23:11;12.68;;;5.20;;
47403;SDS011;33157;51.508;4.288;2023-07-02T14:28:14;12.20;;;5.05;;
47403;SDS011;33157;51.508;4.288;2023-07-02T14:33:21;13.07;;;5.50;;
47403;SDS011;33157;51.508;4.288;2023-07-02T14:38:25;13.48;;;5.78;;
47403;SDS011;33157;51.508;4.288;2023-07-02T14:43:28;11.95;;;6.00;;
47403;SDS011;33157;51.508;4.288;2023-07-02T14:48:38;16.05;;;5.32;;
47403;SDS011;33157;51.508;4.288;2023-07-02T14:53:49;14.63;;;5.97;;
47403;SDS011;33157;51.508;4.288;2023-07-02T14:58:53;15.00;;;5.53;;
47403;SDS011;33157;51.508;4.288;2023-07-02T15:04:13;14.75;;;5.55;;
47403;SDS011;33157;51.508;4.288;2023-07-02T15:09:17;18.95;;;7.20;;
47403;SDS011;33157;51.508;4.288;2023-07-02T15:14:19;15.77;;;5.67;;
47403;SDS011;33157;51.508;4.288;2023-07-02T15:19:23;15.95;;;6.00;;
47403;SDS011;33157;51.508;4.288;2023-07-02T15:24:26;18.13;;;6.45;;
47403;SDS011;33157;51.508;4.288;2023-07-02T15:29:29;18.85;;;6.55;;
47403;SDS011;33157;51.508;4.288;2023-07-02T15:34:34;17.92;;;6.45;;
47403;SDS011;33157;51.508;4.288;2023-07-02T15:39:38;13.95;;;5.68;;
47403;SDS011;33157;51.508;4.288;2023-07-02T15:44:41;14.00;;;5.57;;
47403;SDS011;33157;51.508;4.288;2023-07-02T15:49:49;16.02;;;5.63;;
47403;SDS011;33157;51.508;4.288;2023-07-02T15:55:02;16.42;;;6.05;;
47403;SDS011;33157;51.508;4.288;2023-07-02T16:00:03;18.33;;;5.97;;
47403;SDS011;33157;51.508;4.288;2023-07-02T16:05:05;21.07;;;5.27;;
47403;SDS011;33157;51.508;4.288;2023-07-02T16:10:17;16.95;;;6.45;;
47403;SDS011;33157;51.508;4.288;2023-07-02T16:15:27;17.83;;;6.17;;
47403;SDS011;33157;51.508;4.288;2023-07-02T16:20:29;25.67;;;9.50;;
47403;SDS011;33157;51.508;4.288;2023-07-02T16:25:30;17.30;;;6.35;;
47403;SDS011;33157;51.508;4.288;2023-07-02T16:30:32;20.30;;;5.93;;
47403;SDS011;33157;51.508;4.288;2023-07-02T16:35:35;17.88;;;5.30;;
47403;SDS011;33157;51.508;4.288;2023-07-02T16:40:38;20.95;;;6.20;;
47403;SDS011;33157;51.508;4.288;2023-07-02T16:45:39;15.55;;;5.25;;
47403;SDS011;33157;51.508;4.288;2023-07-02T16:50:41;19.33;;;6.23;;
47403;SDS011;33157;51.508;4.288;2023-07-02T17:00:51;17.33;;;5.65;;
47403;SDS011;33157;51.508;4.288;2023-07-02T17:05:58;15.82;;;5.22;;
47403;SDS011;33157;51.508;4.288;2023-07-02T17:11:10;24.55;;;5.70;;
47403;SDS011;33157;51.508;4.288;2023-07-02T17:16:33;16.27;;;4.90;;
47403;SDS011;33157;51.508;4.288;2023-07-02T17:26:42;17.63;;;4.83;;
47403;SDS011;33157;51.508;4.288;2023-07-02T17:31:47;17.98;;;5.40;;
47403;SDS011;33157;51.508;4.288;2023-07-02T17:36:58;19.02;;;5.13;;
47403;SDS011;33157;51.508;4.288;2023-07-02T17:42:05;23.45;;;4.95;;
47403;SDS011;33157;51.508;4.288;2023-07-02T17:47:12;21.53;;;6.10;;
47403;SDS011;33157;51.508;4.288;2023-07-02T17:52:19;15.65;;;4.90;;
47403;SDS011;33157;51.508;4.288;2023-07-02T17:57:26;20.20;;;5.97;;
47403;SDS011;33157;51.508;4.288;2023-07-02T18:02:32;20.67;;;4.73;;
47403;SDS011;33157;51.508;4.288;2023-07-02T18:07:34;22.50;;;4.60;;
47403;SDS011;33157;51.508;4.288;2023-07-02T18:17:42;19.58;;;4.90;;
47403;SDS011;33157;51.508;4.288;2023-07-02T18:22:44;22.33;;;6.13;;
47403;SDS011;33157;51.508;4.288;2023-07-02T18:28:00;13.40;;;5.15;;
47403;SDS011;33157;51.508;4.288;2023-07-02T18:33:06;22.58;;;5.68;;
47403;SDS011;33157;51.508;4.288;2023-07-02T18:38:08;19.35;;;5.15;;
47403;SDS011;33157;51.508;4.288;2023-07-02T18:43:11;22.80;;;4.90;;
47403;SDS011;33157;51.508;4.288;2023-07-02T18:48:19;15.40;;;4.63;;
47403;SDS011;33157;51.508;4.288;2023-07-02T18:53:24;17.73;;;4.00;;
47403;SDS011;33157;51.508;4.288;2023-07-02T18:58:28;17.52;;;5.05;;
47403;SDS011;33157;51.508;4.288;2023-07-02T19:03:30;26.42;;;4.93;;
47403;SDS011;33157;51.508;4.288;2023-07-02T19:08:32;18.73;;;5.70;;
47403;SDS011;33157;51.508;4.288;2023-07-02T19:13:34;17.93;;;4.57;;
47403;SDS011;33157;51.508;4.288;2023-07-02T19:18:40;14.05;;;4.45;;
47403;SDS011;33157;51.508;4.288;2023-07-02T19:23:47;18.52;;;4.70;;
47403;SDS011;33157;51.508;4.288;2023-07-02T19:28:50;17.65;;;4.80;;
47403;SDS011;33157;51.508;4.288;2023-07-02T19:33:51;22.33;;;5.40;;
47403;SDS011;33157;51.508;4.288;2023-07-02T19:38:52;18.58;;;5.47;;
47403;SDS011;33157;51.508;4.288;2023-07-02T19:44:07;22.65;;;5.45;;
47403;SDS011;33157;51.508;4.288;2023-07-02T19:49:10;17.20;;;4.90;;
47403;SDS011;33157;51.508;4.288;2023-07-02T19:54:16;29.30;;;5.80;;
47403;SDS011;33157;51.508;4.288;2023-07-02T19:59:20;16.42;;;4.40;;
47403;SDS011;33157;51.508;4.288;2023-07-02T20:04:25;24.42;;;4.65;;
47403;SDS011;33157;51.508;4.288;2023-07-02T20:09:34;24.17;;;5.40;;
47403;SDS011;33157;51.508;4.288;2023-07-02T20:14:37;22.15;;;4.57;;
47403;SDS011;33157;51.508;4.288;2023-07-02T20:19:42;18.75;;;5.22;;
47403;SDS011;33157;51.508;4.288;2023-07-02T20:24:51;19.33;;;4.45;;
47403;SDS011;33157;51.508;4.288;2023-07-02T20:29:53;19.08;;;4.93;;
47403;SDS011;33157;51.508;4.288;2023-07-02T20:34:55;17.02;;;5.38;;
47403;SDS011;33157;51.508;4.288;2023-07-02T20:40:00;20.42;;;5.53;;
47403;SDS011;33157;51.508;4.288;2023-07-02T20:45:04;27.30;;;5.88;;
47403;SDS011;33157;51.508;4.288;2023-07-02T20:50:11;18.23;;;4.85;;
47403;SDS011;33157;51.508;4.288;2023-07-02T20:55:26;19.92;;;4.82;;
47403;SDS011;33157;51.508;4.288;2023-07-02T21:00:28;20.20;;;4.60;;
47403;SDS011;33157;51.508;4.288;2023-07-02T21:05:29;24.13;;;6.35;;
47403;SDS011;33157;51.508;4.288;2023-07-02T21:10:30;20.20;;;4.38;;
47403;SDS011;33157;51.508;4.288;2023-07-02T21:15:38;31.70;;;6.85;;
47403;SDS011;33157;51.508;4.288;2023-07-02T21:20:46;16.30;;;4.50;;
47403;SDS011;33157;51.508;4.288;2023-07-02T21:25:54;20.20;;;4.50;;
47403;SDS011;33157;51.508;4.288;2023-07-02T21:30:59;24.73;;;4.47;;
47403;SDS011;33157;51.508;4.288;2023-07-02T21:36:05;16.80;;;5.00;;
47403;SDS011;33157;51.508;4.288;2023-07-02T21:41:08;21.27;;;5.95;;
47403;SDS011;33157;51.508;4.288;2023-07-02T21:46:18;20.48;;;5.10;;
47403;SDS011;33157;51.508;4.288;2023-07-02T21:51:19;20.83;;;4.60;;
47403;SDS011;33157;51.508;4.288;2023-07-02T21:56:27;20.98;;;4.55;;
47403;SDS011;33157;51.508;4.288;2023-07-02T22:01:29;20.30;;;4.57;;
47403;SDS011;33157;51.508;4.288;2023-07-02T22:06:31;20.45;;;4.72;;
47403;SDS011;33157;51.508;4.288;2023-07-02T22:11:33;26.30;;;5.82;;
47403;SDS011;33157;51.508;4.288;2023-07-02T22:16:42;18.70;;;4.32;;
47403;SDS011;33157;51.508;4.288;2023-07-02T22:21:42;21.10;;;4.78;;
47403;SDS011;33157;51.508;4.288;2023-07-02T22:26:50;17.45;;;4.20;;
47403;SDS011;33157;51.508;4.288;2023-07-02T22:31:52;22.50;;;4.00;;
47403;SDS011;33157;51.508;4.288;2023-07-02T22:36:54;18.83;;;5.75;;
47403;SDS011;33157;51.508;4.288;2023-07-02T22:42:04;17.55;;;4.10;;
47403;SDS011;33157;51.508;4.288;2023-07-02T22:47:09;22.77;;;5.07;;
47403;SDS011;33157;51.508;4.288;2023-07-02T22:52:11;18.02;;;4.22;;
47403;SDS011;33157;51.508;4.288;2023-07-02T23:02:16;23.88;;;5.72;;
47403;SDS011;33157;51.508;4.288;2023-07-02T23:07:19;25.10;;;5.70;;
47403;SDS011;33157;51.508;4.288;2023-07-02T23:12:21;25.45;;;5.07;;
47403;SDS011;33157;51.508;4.288;2023-07-02T23:17:24;24.25;;;5.10;;
47403;SDS011;33157;51.508;4.288;2023-07-02T23:22:26;24.27;;;4.53;;
47403;SDS011;33157;51.508;4.288;2023-07-02T23:27:29;28.55;;;6.20;;
47403;SDS011;33157;51.508;4.288;2023-07-02T23:32:40;23.52;;;5.82;;
47403;SDS011;33157;51.508;4.288;2023-07-02T23:37:41;30.17;;;5.78;;
47403;SDS011;33157;51.508;4.288;2023-07-02T23:42:45;30.20;;;6.18;;
47403;SDS011;33157;51.508;4.288;2023-07-02T23:47:48;27.52;;;6.32;;
47403;SDS011;33157;51.508;4.288;2023-07-02T23:52:55;36.63;;;6.50;;
47403;SDS011;33157;51.508;4.288;2023-07-02T23:57:56;26.10;;;6.00;;
